Time;durP1;ratioP1;P1;durP2;ratioP2;P2;SDS_P1;SDS_P2;PMS_P1;PMS_P2;Temp;Humidity;BMP_temperature;BMP_pressure;BME280_temperature;BME280_humidity;BME280_pressure;Samples;Min_cycle;Max_cycle;Signal;HPM_P1;HPM_P2
2023/10/13 00:00:25;;;;;;;106.93;37.50;;;;;;;;;;5056897;28;20574;-64
2023/10/13 00:02:54;;;;;;;86.03;34.28;;;;;;;;;;5057056;28;20037;-64
2023/10/13 00:05:20;;;;;;;102.57;38.25;;;;;;;;;;5056952;28;20060;-64
2023/10/13 00:07:46;;;;;;;89.03;37.78;;;;;;;;;;5056798;28;20033;-64
2023/10/13 00:10:12;;;;;;;113.28;39.72;;;;;;;;;;5039255;28;20073;-64
2023/10/13 00:12:39;;;;;;;111.95;40.70;;;;;;;;;;5053753;28;20119;-64
2023/10/13 00:15:13;;;;;;;92.35;37.47;;;;;;;;;;5053594;28;20053;-64
2023/10/13 00:17:39;;;;;;;95.25;38.47;;;;;;;;;;5053713;28;20112;-64
2023/10/13 00:20:11;;;;;;;102.68;38.35;;;;;;;;;;5053863;28;20502;-64
2023/10/13 00:22:40;;;;;;;100.10;37.63;;;;;;;;;;5053340;28;20041;-64
2023/10/13 00:25:12;;;;;;;90.80;36.10;;;;;;;;;;5053723;28;20375;-64
2023/10/13 00:27:41;;;;;;;84.30;35.17;;;;;;;;;;5053480;28;20043;-64
2023/10/13 00:32:44;;;;;;;85.70;34.28;;;;;;;;;;5053330;28;20056;-64
2023/10/13 00:35:57;;;;;;;100.60;35.05;;;;;;;;;;5053597;28;20041;-64
2023/10/13 00:37:59;;;;;;;95.88;34.33;;;;;;;;;;5038689;28;20084;-64
2023/10/13 00:43:29;;;;;;;109.00;34.75;;;;;;;;;;5053062;28;20048;-64
2023/10/13 00:45:48;;;;;;;97.00;34.28;;;;;;;;;;5052729;28;20098;-64
2023/10/13 00:48:15;;;;;;;97.75;33.35;;;;;;;;;;5053403;28;20037;-64
2023/10/13 00:50:45;;;;;;;96.57;32.60;;;;;;;;;;5052731;28;20045;-64
2023/10/13 00:53:12;;;;;;;90.65;32.58;;;;;;;;;;5052950;28;20106;-64
2023/10/13 00:55:41;;;;;;;93.32;32.95;;;;;;;;;;5035265;28;20148;-64
2023/10/13 00:58:07;;;;;;;76.60;31.02;;;;;;;;;;5052523;28;20049;-64
2023/10/13 01:00:46;;;;;;;81.30;31.35;;;;;;;;;;5053289;28;20421;-64
2023/10/13 01:03:14;;;;;;;86.35;31.15;;;;;;;;;;5053123;28;20080;-64
2023/10/13 01:05:41;;;;;;;93.90;32.38;;;;;;;;;;5052545;28;20045;-64
2023/10/13 01:08:11;;;;;;;83.47;31.52;;;;;;;;;;5053060;28;20831;-64
2023/10/13 01:10:37;;;;;;;78.03;30.23;;;;;;;;;;5053101;28;20655;-64
2023/10/13 01:13:04;;;;;;;86.32;30.88;;;;;;;;;;5052604;28;20032;-64
2023/10/13 01:15:33;;;;;;;89.75;31.70;;;;;;;;;;5052653;28;20426;-64
2023/10/13 01:18:16;;;;;;;78.03;30.27;;;;;;;;;;5052311;28;20114;-64
2023/10/13 01:20:46;;;;;;;94.82;33.53;;;;;;;;;;5034502;28;20080;-64
2023/10/13 01:23:19;;;;;;;86.97;30.77;;;;;;;;;;5051802;28;20110;-64
2023/10/13 01:25:45;;;;;;;99.22;33.70;;;;;;;;;;5052372;28;20041;-64
2023/10/13 01:28:15;;;;;;;94.50;33.67;;;;;;;;;;5052250;28;20665;-64
2023/10/13 01:30:42;;;;;;;101.00;33.08;;;;;;;;;;5052462;28;20476;-64
2023/10/13 01:33:10;;;;;;;108.93;33.53;;;;;;;;;;5052459;28;20040;-64
2023/10/13 01:35:41;;;;;;;91.85;34.10;;;;;;;;;;5051896;28;20087;-64
2023/10/13 01:38:08;;;;;;;96.40;32.87;;;;;;;;;;5052175;28;20561;-64
2023/10/13 01:40:35;;;;;;;103.55;34.05;;;;;;;;;;5051806;28;20272;-64
2023/10/13 01:43:04;;;;;;;107.35;35.70;;;;;;;;;;5051832;28;20044;-64
2023/10/13 01:45:30;;;;;;;80.53;33.58;;;;;;;;;;5051880;28;20505;-64
2023/10/13 01:47:56;;;;;;;104.47;35.08;;;;;;;;;;5052194;28;20064;-64
2023/10/13 01:50:29;;;;;;;96.07;33.20;;;;;;;;;;5051478;28;20102;-64
2023/10/13 01:53:11;;;;;;;108.75;34.97;;;;;;;;;;5051591;28;20064;-64
2023/10/13 01:55:44;;;;;;;94.25;34.88;;;;;;;;;;5051467;28;20049;-64
2023/10/13 01:58:22;;;;;;;83.63;33.20;;;;;;;;;;5051527;28;20045;-64
2023/10/13 02:00:49;;;;;;;84.85;34.33;;;;;;;;;;5051858;28;20506;-64
2023/10/13 02:03:15;;;;;;;98.45;33.67;;;;;;;;;;5051832;28;20052;-64
2023/10/13 02:05:57;;;;;;;81.35;33.58;;;;;;;;;;5051193;28;20834;-64
2023/10/13 02:08:25;;;;;;;79.28;32.90;;;;;;;;;;5052015;28;20523;-64
2023/10/13 02:10:51;;;;;;;77.05;33.33;;;;;;;;;;5033971;28;20140;-64
2023/10/13 02:13:18;;;;;;;73.47;32.67;;;;;;;;;;5051356;28;20059;-64
2023/10/13 02:15:48;;;;;;;94.03;33.72;;;;;;;;;;5051639;28;20125;-64
2023/10/13 02:18:26;;;;;;;90.15;34.75;;;;;;;;;;5051409;28;20052;-64
2023/10/13 02:20:56;;;;;;;82.82;33.40;;;;;;;;;;5051267;28;20406;-64
2023/10/13 02:23:24;;;;;;;80.40;34.03;;;;;;;;;;5051684;28;20071;-64
2023/10/13 02:26:00;;;;;;;90.57;32.97;;;;;;;;;;5033535;28;20048;-64
2023/10/13 02:28:30;;;;;;;88.63;33.00;;;;;;;;;;5051193;28;20088;-64
2023/10/13 02:30:57;;;;;;;73.65;32.67;;;;;;;;;;5051584;28;20348;-64
2023/10/13 02:33:33;;;;;;;85.35;32.55;;;;;;;;;;5051418;28;20049;-64
2023/10/13 02:36:05;;;;;;;81.97;31.98;;;;;;;;;;5050468;28;20045;-64
2023/10/13 02:41:25;;;;;;;99.90;33.55;;;;;;;;;;5051072;28;20063;-64
2023/10/13 02:43:52;;;;;;;79.47;31.95;;;;;;;;;;5051113;28;20037;-64
2023/10/13 02:46:21;;;;;;;89.82;32.88;;;;;;;;;;5051157;28;20124;-64
2023/10/13 02:48:52;;;;;;;88.47;31.42;;;;;;;;;;5050863;28;20136;-64
2023/10/13 02:51:22;;;;;;;74.93;30.33;;;;;;;;;;5051300;28;20077;-64
2023/10/13 02:53:49;;;;;;;112.38;32.38;;;;;;;;;;5032949;28;20495;-64
2023/10/13 02:56:22;;;;;;;79.72;30.67;;;;;;;;;;5050636;28;20080;-64
2023/10/13 02:58:56;;;;;;;91.70;30.52;;;;;;;;;;5051098;28;20087;-64
2023/10/13 03:01:28;;;;;;;80.30;29.70;;;;;;;;;;5051221;28;20048;-64
2023/10/13 03:03:55;;;;;;;85.60;30.67;;;;;;;;;;5050822;28;20510;-64
2023/10/13 03:06:23;;;;;;;85.55;30.95;;;;;;;;;;5050953;28;20049;-64
2023/10/13 03:08:50;;;;;;;72.45;27.83;;;;;;;;;;5032900;28;20617;-64
2023/10/13 03:11:21;;;;;;;67.03;27.40;;;;;;;;;;5050810;28;20072;-64
2023/10/13 03:13:47;;;;;;;88.95;30.02;;;;;;;;;;5051063;28;20120;-64
2023/10/13 03:16:15;;;;;;;84.20;28.92;;;;;;;;;;5050981;28;20123;-64
2023/10/13 03:18:51;;;;;;;71.55;28.13;;;;;;;;;;5050115;28;20045;-64
2023/10/13 03:21:28;;;;;;;105.13;29.38;;;;;;;;;;5032916;28;20128;-64
2023/10/13 03:23:55;;;;;;;82.95;29.25;;;;;;;;;;5050965;28;20045;-64
2023/10/13 03:26:21;;;;;;;85.85;27.13;;;;;;;;;;5050341;28;20433;-64
2023/10/13 03:28:54;;;;;;;83.45;27.48;;;;;;;;;;5050649;28;20045;-64
2023/10/13 03:31:27;;;;;;;79.90;25.98;;;;;;;;;;5050815;28;20041;-64
2023/10/13 03:33:59;;;;;;;81.32;26.45;;;;;;;;;;5050414;28;20045;-64
2023/10/13 03:37:37;;;;;;;74.60;25.80;;;;;;;;;;5050720;28;20049;-64
2023/10/13 03:39:27;;;;;;;79.07;26.23;;;;;;;;;;5032624;28;20554;-64
2023/10/13 03:41:53;;;;;;;;;;;;;;;;;;5050513;28;20041;-64
2023/10/13 03:44:20;;;;;;;73.82;26.08;;;;;;;;;;5050395;28;19917;-64
2023/10/13 03:46:49;;;;;;;86.53;26.75;;;;;;;;;;5051066;28;20040;-64
2023/10/13 03:49:21;;;;;;;76.28;26.45;;;;;;;;;;5054044;28;20086;-64
2023/10/13 03:51:47;;;;;;;92.05;27.77;;;;;;;;;;5054038;28;20116;-64
2023/10/13 03:54:16;;;;;;;75.03;25.98;;;;;;;;;;5053908;28;20115;-64
2023/10/13 03:56:44;;;;;;;67.45;25.63;;;;;;;;;;5053308;28;20037;-64
2023/10/13 03:59:17;;;;;;;77.40;26.77;;;;;;;;;;5054213;28;20041;-64
2023/10/13 04:01:47;;;;;;;88.82;28.60;;;;;;;;;;5054280;28;20049;-64
2023/10/13 04:04:34;;;;;;;76.57;25.10;;;;;;;;;;5053892;28;20041;-64
2023/10/13 04:08:44;;;;;;;105.05;28.25;;;;;;;;;;5054063;28;20041;-64
2023/10/13 04:15:36;;;;;;;90.72;28.80;;;;;;;;;;5054021;28;20098;-64
2023/10/13 04:17:27;;;;;;;83.72;27.73;;;;;;;;;;5038927;28;20044;-64
2023/10/13 04:28:27;;;;;;;70.63;27.60;;;;;;;;;;5053447;28;20045;-64
2023/10/13 04:36:13;;;;;;;98.53;30.27;;;;;;;;;;5053422;28;20071;-64
2023/10/13 04:38:56;;;;;;;78.18;28.70;;;;;;;;;;5053464;28;20063;-64
2023/10/13 04:41:37;;;;;;;85.18;28.83;;;;;;;;;;5052876;28;20041;-64
2023/10/13 04:54:54;;;;;;;72.72;26.00;;;;;;;;;;5011277;28;20077;-64
2023/10/13 06:29:49;;;;;;;21.00;9.73;;;;;;;;;;5051013;28;20563;-64
2023/10/13 06:32:16;;;;;;;17.65;9.32;;;;;;;;;;5025759;28;20044;-64
2023/10/13 06:34:45;;;;;;;14.18;8.32;;;;;;;;;;5047233;28;20049;-65
2023/10/13 06:37:25;;;;;;;20.73;9.02;;;;;;;;;;5050672;28;20119;-65
2023/10/13 06:39:56;;;;;;;17.85;9.68;;;;;;;;;;5049649;28;20059;-64
2023/10/13 06:42:25;;;;;;;14.40;8.93;;;;;;;;;;5050222;28;20099;-65
2023/10/13 06:44:54;;;;;;;16.02;7.88;;;;;;;;;;5050702;28;20049;-64
2023/10/13 06:47:21;;;;;;;14.77;8.27;;;;;;;;;;5048959;28;20067;-65
2023/10/13 06:49:50;;;;;;;14.60;7.07;;;;;;;;;;5050211;28;20114;-66
2023/10/13 06:52:17;;;;;;;15.35;7.53;;;;;;;;;;5050519;28;20041;-65
2023/10/13 06:54:43;;;;;;;12.32;6.70;;;;;;;;;;5049399;28;20096;-65
2023/10/13 06:57:20;;;;;;;12.80;7.50;;;;;;;;;;5050696;28;20574;-65
2023/10/13 06:59:46;;;;;;;14.18;7.03;;;;;;;;;;5045771;28;20056;-65
2023/10/13 07:02:21;;;;;;;17.73;7.38;;;;;;;;;;5046844;28;20040;-65
2023/10/13 07:05:07;;;;;;;15.73;7.35;;;;;;;;;;5049397;28;20286;-65
2023/10/13 07:07:33;;;;;;;10.80;6.38;;;;;;;;;;5049539;28;20048;-65
2023/10/13 07:09:59;;;;;;;13.25;6.80;;;;;;;;;;5045808;28;20132;-65
2023/10/13 07:12:33;;;;;;;14.02;7.00;;;;;;;;;;5049835;28;20576;-65
2023/10/13 07:15:35;;;;;;;13.68;7.32;;;;;;;;;;5049121;28;20075;-65
2023/10/13 07:17:59;;;;;;;;;;;;;;;;;;5047634;28;20053;-65
2023/10/13 07:23:03;;;;;;;13.50;5.90;;;;;;;;;;5053613;28;20053;-65
2023/10/13 07:25:32;;;;;;;10.48;6.72;;;;;;;;;;5053726;28;20029;-65
2023/10/13 07:28:03;;;;;;;19.92;8.18;;;;;;;;;;5053842;28;20045;-66
2023/10/13 07:30:41;;;;;;;15.20;7.25;;;;;;;;;;5053120;28;20090;-66
2023/10/13 07:33:10;;;;;;;15.45;7.20;;;;;;;;;;5054222;28;20045;-66
2023/10/13 07:35:37;;;;;;;17.77;7.90;;;;;;;;;;5053114;28;20115;-65
2023/10/13 07:38:07;;;;;;;17.10;7.60;;;;;;;;;;5053350;28;20152;-65
2023/10/13 07:43:08;;;;;;;16.17;7.35;;;;;;;;;;5043435;28;20056;-64
2023/10/13 07:45:36;;;;;;;18.67;7.22;;;;;;;;;;5051335;28;20082;-65
2023/10/13 07:48:12;;;;;;;23.77;7.45;;;;;;;;;;5053554;28;20068;-65
2023/10/13 07:50:42;;;;;;;22.95;8.32;;;;;;;;;;5053149;28;20044;-65
2023/10/13 07:53:23;;;;;;;20.30;8.55;;;;;;;;;;5052941;28;20061;-66
2023/10/13 07:55:55;;;;;;;18.65;8.55;;;;;;;;;;5052713;28;20089;-66
2023/10/13 07:58:27;;;;;;;15.02;7.80;;;;;;;;;;5036537;28;20045;-66
2023/10/13 08:01:16;;;;;;;16.65;7.88;;;;;;;;;;5052897;28;20045;-64
2023/10/13 08:03:44;;;;;;;17.73;8.95;;;;;;;;;;5053392;28;20123;-64
2023/10/13 08:08:39;;;;;;;22.10;9.00;;;;;;;;;;5052841;28;20047;-66
2023/10/13 08:11:24;;;;;;;25.60;9.13;;;;;;;;;;5052987;28;20033;-65
2023/10/13 08:13:54;;;;;;;20.00;8.60;;;;;;;;;;5053234;28;20052;-65
2023/10/13 08:16:21;;;;;;;24.95;9.15;;;;;;;;;;5052070;28;20083;-65
2023/10/13 08:18:50;;;;;;;26.35;10.77;;;;;;;;;;5052831;28;20041;-64
2023/10/13 08:21:17;;;;;;;29.00;9.70;;;;;;;;;;5052790;28;20037;-65
2023/10/13 08:26:56;;;;;;;27.50;10.57;;;;;;;;;;5051991;28;20052;-65
2023/10/13 08:37:28;;;;;;;26.63;10.35;;;;;;;;;;5052147;28;20170;-66
2023/10/13 08:48:16;;;;;;;21.75;11.38;;;;;;;;;;5052338;28;20076;-64
2023/10/13 08:53:31;;;;;;;27.88;12.82;;;;;;;;;;5051829;28;20041;-65
2023/10/13 09:09:35;;;;;;;33.15;14.52;;;;;;;;;;5051676;28;20537;-65
2023/10/13 09:12:14;;;;;;;28.90;13.43;;;;;;;;;;5050600;28;20036;-64
2023/10/13 09:14:44;;;;;;;32.25;14.02;;;;;;;;;;5038006;28;20045;-64
2023/10/13 09:19:48;;;;;;;23.90;12.45;;;;;;;;;;5051628;28;20602;-64
2023/10/13 09:25:16;;;;;;;24.58;12.88;;;;;;;;;;4996623;28;20448;-65
2023/10/13 09:27:42;;;;;;;33.60;12.50;;;;;;;;;;5033648;28;20041;-65
2023/10/13 09:30:10;;;;;;;24.17;13.23;;;;;;;;;;5051161;28;20049;-65
2023/10/13 09:32:45;;;;;;;27.40;12.02;;;;;;;;;;5051594;28;20056;-65
2023/10/13 09:35:16;;;;;;;28.75;12.52;;;;;;;;;;5051204;28;20097;-66
2023/10/13 09:37:46;;;;;;;30.10;12.35;;;;;;;;;;5050730;28;20045;-65
2023/10/13 09:43:04;;;;;;;27.27;12.25;;;;;;;;;;5050438;28;20094;-65
2023/10/13 09:45:36;;;;;;;;;;;;;;;;;;5050226;28;20086;-65
2023/10/13 09:48:06;;;;;;;20.80;10.65;;;;;;;;;;5050835;28;20017;-64
2023/10/13 09:50:37;;;;;;;24.02;11.68;;;;;;;;;;5050667;28;20135;-65
2023/10/13 09:53:05;;;;;;;21.27;11.27;;;;;;;;;;5050831;28;20134;-65
2023/10/13 09:55:33;;;;;;;20.98;10.65;;;;;;;;;;5050588;28;20182;-65
2023/10/13 09:58:13;;;;;;;24.05;10.48;;;;;;;;;;5050645;28;20048;-65
2023/10/13 10:01:10;;;;;;;20.35;9.35;;;;;;;;;;5049295;28;20033;-65
2023/10/13 10:06:38;;;;;;;20.63;9.38;;;;;;;;;;5050237;28;20045;-65
2023/10/13 10:09:15;;;;;;;23.33;9.55;;;;;;;;;;5033215;28;20536;-64
2023/10/13 10:11:47;;;;;;;21.98;9.60;;;;;;;;;;5050412;28;20059;-65
2023/10/13 10:14:17;;;;;;;24.83;8.13;;;;;;;;;;5050408;28;20132;-65
2023/10/13 10:17:02;;;;;;;17.88;8.90;;;;;;;;;;5049920;28;20060;-65
2023/10/13 10:19:28;;;;;;;18.33;8.77;;;;;;;;;;5050370;28;20056;-65
2023/10/13 10:22:16;;;;;;;24.17;8.20;;;;;;;;;;5048636;28;20403;-66
2023/10/13 10:24:43;;;;;;;18.00;8.57;;;;;;;;;;5050072;28;20490;-65
2023/10/13 10:27:14;;;;;;;26.35;8.77;;;;;;;;;;5046661;28;20475;-65
2023/10/13 10:29:41;;;;;;;19.25;7.75;;;;;;;;;;5036950;28;20125;-64
2023/10/13 10:32:14;;;;;;;17.65;7.97;;;;;;;;;;5047151;28;20041;-64
2023/10/13 10:34:40;;;;;;;17.50;8.48;;;;;;;;;;5050766;28;20033;-64
2023/10/13 10:37:09;;;;;;;18.92;8.02;;;;;;;;;;5050282;28;20151;-64
2023/10/13 10:39:46;;;;;;;20.80;7.75;;;;;;;;;;5050672;28;20541;-64
2023/10/13 10:42:23;;;;;;;16.45;7.68;;;;;;;;;;5050757;28;20041;-64
2023/10/13 10:44:55;;;;;;;18.70;6.90;;;;;;;;;;5050138;28;20471;-64
2023/10/13 10:47:31;;;;;;;19.88;7.13;;;;;;;;;;5050713;28;20176;-64
2023/10/13 10:49:59;;;;;;;16.55;7.40;;;;;;;;;;5050482;28;20129;-64
2023/10/13 10:52:27;;;;;;;17.55;7.43;;;;;;;;;;5050577;28;20453;-65
2023/10/13 10:55:00;;;;;;;16.25;7.25;;;;;;;;;;5050406;28;20460;-64
2023/10/13 10:57:29;;;;;;;18.20;7.13;;;;;;;;;;5032059;28;20176;-65
2023/10/13 11:00:14;;;;;;;21.20;7.40;;;;;;;;;;5050763;28;20045;-65
2023/10/13 11:02:41;;;;;;;18.20;6.78;;;;;;;;;;5050742;28;20079;-65
2023/10/13 11:05:09;;;;;;;26.13;7.70;;;;;;;;;;5050047;28;20045;-65
2023/10/13 11:07:35;;;;;;;18.92;6.75;;;;;;;;;;5046653;28;20448;-64
2023/10/13 11:10:26;;;;;;;18.70;7.20;;;;;;;;;;5043785;28;20387;-64
2023/10/13 11:13:12;;;;;;;19.25;6.75;;;;;;;;;;5049764;28;20372;-64
2023/10/13 11:15:45;;;;;;;15.18;5.93;;;;;;;;;;5050357;28;20048;-64
2023/10/13 11:18:33;;;;;;;18.98;6.50;;;;;;;;;;5050411;28;20037;-65
2023/10/13 11:21:00;;;;;;;16.70;6.80;;;;;;;;;;5050086;28;20041;-63
2023/10/13 11:23:26;;;;;;;17.45;6.85;;;;;;;;;;5050334;28;20430;-63
2023/10/13 11:26:01;;;;;;;17.90;6.13;;;;;;;;;;5050191;28;20041;-63
2023/10/13 11:28:28;;;;;;;18.20;7.72;;;;;;;;;;5050004;28;20059;-63
2023/10/13 11:31:10;;;;;;;17.38;6.22;;;;;;;;;;5050437;28;20060;-64
2023/10/13 11:33:36;;;;;;;;;;;;;;;;;;5035320;28;20077;-65
2023/10/13 11:36:03;;;;;;;18.30;6.63;;;;;;;;;;5038098;28;19971;-65
2023/10/13 11:41:15;;;;;;;18.58;7.65;;;;;;;;;;5048969;28;20052;-64
2023/10/13 11:46:16;;;;;;;20.95;6.95;;;;;;;;;;5050319;28;20044;-64
2023/10/13 11:48:43;;;;;;;22.95;7.10;;;;;;;;;;5049491;28;20055;-65
2023/10/13 11:51:17;;;;;;;19.95;7.32;;;;;;;;;;5015612;28;20048;-65
2023/10/13 11:53:44;;;;;;;25.65;6.65;;;;;;;;;;5049934;28;20411;-64
2023/10/13 11:56:10;;;;;;;19.02;6.57;;;;;;;;;;5049612;28;20052;-64
2023/10/13 11:58:37;;;;;;;15.05;7.28;;;;;;;;;;5049711;28;20449;-65
2023/10/13 12:11:50;;;;;;;22.27;7.10;;;;;;;;;;5053268;28;20064;-64
2023/10/13 12:14:17;;;;;;;18.52;6.82;;;;;;;;;;5053839;28;20044;-65
2023/10/13 12:16:53;;;;;;;22.77;6.95;;;;;;;;;;5053341;28;20199;-65
2023/10/13 12:19:27;;;;;;;18.52;7.03;;;;;;;;;;5053020;28;20045;-65
2023/10/13 12:21:57;;;;;;;18.13;6.97;;;;;;;;;;5053687;28;20589;-65
2023/10/13 12:24:39;;;;;;;15.02;6.82;;;;;;;;;;5053536;28;20037;-65
2023/10/13 12:27:19;;;;;;;16.27;6.47;;;;;;;;;;5052890;28;20052;-65
2023/10/13 12:29:48;;;;;;;26.88;7.57;;;;;;;;;;5033611;28;20124;-65
2023/10/13 12:32:20;;;;;;;21.45;7.70;;;;;;;;;;5041911;28;20037;-65
2023/10/13 12:54:02;;;;;;;19.23;6.72;;;;;;;;;;5052689;28;20059;-66
2023/10/13 12:56:28;;;;;;;20.58;6.93;;;;;;;;;;5034437;28;20113;-65
2023/10/13 12:58:55;;;;;;;18.20;6.05;;;;;;;;;;5052753;28;20055;-65
2023/10/13 13:01:21;;;;;;;21.30;6.28;;;;;;;;;;5052806;28;20037;-65
2023/10/13 13:03:49;;;;;;;19.08;6.15;;;;;;;;;;5052307;28;20095;-65
2023/10/13 13:06:24;;;;;;;20.23;7.18;;;;;;;;;;5052386;28;20045;-64
2023/10/13 13:08:50;;;;;;;21.02;7.88;;;;;;;;;;5052501;28;20064;-64
2023/10/13 13:11:16;;;;;;;18.67;6.25;;;;;;;;;;5052028;28;20454;-64
2023/10/13 13:13:42;;;;;;;20.42;6.80;;;;;;;;;;5052290;28;20090;-65
2023/10/13 13:16:09;;;;;;;27.20;6.75;;;;;;;;;;5034484;28;20087;-64
2023/10/13 13:18:35;;;;;;;18.08;6.50;;;;;;;;;;5051801;28;20045;-65
2023/10/13 13:21:06;;;;;;;20.63;6.75;;;;;;;;;;5052387;28;20043;-65
2023/10/13 13:23:32;;;;;;;21.02;6.43;;;;;;;;;;5052353;28;20044;-64
2023/10/13 13:25:58;;;;;;;16.67;6.55;;;;;;;;;;5051752;28;20518;-65
2023/10/13 13:28:24;;;;;;;24.05;6.93;;;;;;;;;;5051999;28;20174;-65
2023/10/13 13:30:50;;;;;;;20.48;6.97;;;;;;;;;;5051994;28;20044;-65
2023/10/13 13:33:23;;;;;;;18.95;6.82;;;;;;;;;;5033873;28;20704;-66
2023/10/13 13:35:49;;;;;;;21.13;6.75;;;;;;;;;;5034111;28;20060;-65
2023/10/13 13:38:21;;;;;;;22.52;7.30;;;;;;;;;;5051962;28;20041;-65
2023/10/13 13:40:53;;;;;;;15.88;6.45;;;;;;;;;;5051531;28;20414;-65
2023/10/13 13:43:38;;;;;;;;;;;;;;;;;;5052559;28;20079;-65
2023/10/13 13:46:09;;;;;;;28.38;7.60;;;;;;;;;;5052040;28;20360;-65
2023/10/13 13:48:35;;;;;;;20.42;6.95;;;;;;;;;;5051636;28;20051;-65
2023/10/13 13:51:26;;;;;;;22.10;8.40;;;;;;;;;;5052048;28;20041;-65
2023/10/13 13:53:52;;;;;;;22.10;7.78;;;;;;;;;;5051670;28;20518;-65
2023/10/13 13:56:19;;;;;;;22.92;7.88;;;;;;;;;;5051539;28;20442;-65
2023/10/13 13:58:45;;;;;;;21.58;7.88;;;;;;;;;;5051864;28;20651;-65
2023/10/13 14:01:12;;;;;;;22.48;7.82;;;;;;;;;;5051864;28;20083;-65
2023/10/13 14:03:47;;;;;;;23.55;8.23;;;;;;;;;;5051621;28;20045;-65
2023/10/13 14:06:24;;;;;;;20.92;8.38;;;;;;;;;;5051848;28;20131;-65
2023/10/13 14:08:54;;;;;;;26.42;8.50;;;;;;;;;;5051924;28;20044;-65
2023/10/13 14:16:53;;;;;;;22.05;8.40;;;;;;;;;;5051101;28;20095;-65
2023/10/13 14:19:29;;;;;;;19.63;8.20;;;;;;;;;;5051577;28;20037;-65
2023/10/13 14:21:55;;;;;;;20.02;8.65;;;;;;;;;;5051669;28;20119;-65
2023/10/13 14:24:27;;;;;;;19.90;8.50;;;;;;;;;;5051300;28;20610;-65
2023/10/13 14:27:02;;;;;;;24.90;9.07;;;;;;;;;;5051205;28;20119;-65
2023/10/13 14:29:28;;;;;;;23.02;8.38;;;;;;;;;;5051740;28;20115;-65
2023/10/13 14:31:54;;;;;;;21.02;8.25;;;;;;;;;;5050599;28;20048;-65
2023/10/13 14:34:21;;;;;;;22.75;7.97;;;;;;;;;;5051597;28;20713;-65
2023/10/13 14:36:48;;;;;;;22.92;8.98;;;;;;;;;;5051430;28;20044;-65
2023/10/13 14:39:14;;;;;;;22.38;8.52;;;;;;;;;;5051018;28;20094;-65
2023/10/13 14:41:41;;;;;;;17.90;8.18;;;;;;;;;;5051231;28;20062;-65
2023/10/13 14:44:08;;;;;;;22.98;8.55;;;;;;;;;;5051297;28;20037;-65
2023/10/13 14:46:40;;;;;;;23.42;8.30;;;;;;;;;;5050854;28;20547;-65
2023/10/13 14:49:06;;;;;;;;;;;;;;;;;;5051681;28;20048;-65
2023/10/13 14:51:32;;;;;;;21.80;7.93;;;;;;;;;;5051236;28;19924;-65
2023/10/13 14:53:59;;;;;;;22.02;8.57;;;;;;;;;;5050494;28;20056;-65
2023/10/13 14:56:26;;;;;;;20.23;8.43;;;;;;;;;;5051029;28;20243;-65
2023/10/13 14:58:53;;;;;;;23.42;8.68;;;;;;;;;;5050944;28;20068;-65
2023/10/13 15:01:20;;;;;;;23.17;10.20;;;;;;;;;;5050671;28;20040;-65
2023/10/13 15:03:50;;;;;;;22.58;9.50;;;;;;;;;;5051212;28;20045;-65
2023/10/13 15:06:20;;;;;;;30.52;10.38;;;;;;;;;;5050994;28;20434;-64
2023/10/13 15:08:49;;;;;;;22.60;9.68;;;;;;;;;;5050780;28;20094;-64
2023/10/13 15:11:18;;;;;;;26.48;10.73;;;;;;;;;;5051033;28;20426;-64
2023/10/13 15:13:44;;;;;;;25.52;11.15;;;;;;;;;;5033077;28;20124;-64
2023/10/13 15:16:14;;;;;;;25.23;10.70;;;;;;;;;;5050569;28;20116;-64
2023/10/13 15:18:40;;;;;;;27.58;10.98;;;;;;;;;;5050726;28;20045;-64
2023/10/13 15:21:08;;;;;;;28.38;11.00;;;;;;;;;;5051046;28;20500;-64
2023/10/13 15:23:42;;;;;;;25.92;11.05;;;;;;;;;;5050403;28;20067;-64
2023/10/13 15:26:13;;;;;;;23.75;10.98;;;;;;;;;;5050507;28;20119;-64
2023/10/13 15:28:48;;;;;;;29.70;11.70;;;;;;;;;;5050920;28;20045;-64
2023/10/13 15:31:37;;;;;;;22.33;10.68;;;;;;;;;;5050453;28;20045;-64
2023/10/13 15:34:07;;;;;;;24.75;10.68;;;;;;;;;;5050452;28;20049;-64
2023/10/13 15:36:35;;;;;;;25.23;9.93;;;;;;;;;;5050436;28;20098;-64
2023/10/13 15:39:02;;;;;;;25.23;11.85;;;;;;;;;;5050116;28;20068;-64
2023/10/13 15:41:29;;;;;;;32.97;12.30;;;;;;;;;;5050635;28;20033;-64
2023/10/13 15:43:55;;;;;;;27.48;11.65;;;;;;;;;;5052656;28;20037;-64
2023/10/13 15:46:23;;;;;;;24.90;11.20;;;;;;;;;;5054096;28;20624;-64
2023/10/13 15:48:49;;;;;;;24.65;11.20;;;;;;;;;;5054189;28;20056;-64
2023/10/13 15:51:18;;;;;;;26.45;11.23;;;;;;;;;;5054407;28;20041;-64
2023/10/13 15:53:47;;;;;;;24.88;10.82;;;;;;;;;;5053584;28;20060;-64
2023/10/13 15:56:14;;;;;;;28.70;10.95;;;;;;;;;;5054210;28;20574;-64
2023/10/13 15:58:46;;;;;;;23.13;10.80;;;;;;;;;;5054189;28;20382;-64
2023/10/13 16:01:13;;;;;;;19.75;9.93;;;;;;;;;;5054026;28;20387;-64
2023/10/13 16:03:40;;;;;;;18.70;9.73;;;;;;;;;;5053914;28;20037;-64
2023/10/13 16:06:09;;;;;;;24.30;9.40;;;;;;;;;;5053830;28;20052;-64
2023/10/13 16:08:42;;;;;;;20.33;9.02;;;;;;;;;;5053835;28;20044;-64
2023/10/13 16:11:13;;;;;;;25.80;9.30;;;;;;;;;;5054158;28;20415;-64
2023/10/13 16:13:39;;;;;;;18.15;7.80;;;;;;;;;;5054086;28;20045;-64
2023/10/13 16:16:05;;;;;;;17.88;7.75;;;;;;;;;;5053575;28;20040;-64
2023/10/13 16:18:35;;;;;;;21.35;8.30;;;;;;;;;;5053687;28;20110;-64
2023/10/13 16:21:03;;;;;;;21.75;6.72;;;;;;;;;;5035834;28;20171;-64
2023/10/13 16:23:29;;;;;;;14.75;6.13;;;;;;;;;;5053597;28;20085;-64
2023/10/13 16:26:01;;;;;;;13.07;6.15;;;;;;;;;;5053806;28;20047;-64
2023/10/13 16:28:27;;;;;;;11.07;5.93;;;;;;;;;;5053865;28;20060;-64
2023/10/13 16:30:53;;;;;;;12.60;5.70;;;;;;;;;;5052947;28;20041;-64
2023/10/13 16:33:20;;;;;;;11.32;5.70;;;;;;;;;;5053808;28;20048;-64
2023/10/13 16:35:47;;;;;;;16.73;5.93;;;;;;;;;;5053555;28;20044;-64
2023/10/13 16:38:14;;;;;;;12.95;6.57;;;;;;;;;;5053223;28;20055;-64
2023/10/13 16:40:40;;;;;;;12.68;6.70;;;;;;;;;;5053350;28;20043;-64
2023/10/13 16:43:07;;;;;;;13.27;6.90;;;;;;;;;;5035630;28;20076;-64
2023/10/13 16:45:37;;;;;;;12.75;6.65;;;;;;;;;;5053194;28;20073;-64
2023/10/13 16:48:05;;;;;;;13.32;8.02;;;;;;;;;;5053433;28;20036;-64
2023/10/13 16:50:37;;;;;;;15.10;8.18;;;;;;;;;;5053209;28;20048;-64
2023/10/13 16:53:06;;;;;;;22.95;9.45;;;;;;;;;;5052663;28;20061;-64
2023/10/13 16:55:32;;;;;;;24.75;10.00;;;;;;;;;;5052838;28;20048;-64
2023/10/13 16:57:58;;;;;;;23.70;9.70;;;;;;;;;;5052937;28;20133;-64
2023/10/13 17:00:27;;;;;;;25.80;10.65;;;;;;;;;;5052868;28;20049;-64
2023/10/13 17:02:57;;;;;;;21.60;10.85;;;;;;;;;;5052897;28;20037;-64
2023/10/13 17:05:27;;;;;;;28.42;10.32;;;;;;;;;;5035078;28;20045;-64
2023/10/13 17:07:54;;;;;;;24.33;10.05;;;;;;;;;;5052737;28;20516;-64
2023/10/13 17:10:20;;;;;;;20.15;8.48;;;;;;;;;;5052946;28;20083;-64
2023/10/13 17:12:46;;;;;;;21.42;9.30;;;;;;;;;;5052534;28;20056;-64
2023/10/13 17:15:21;;;;;;;19.65;8.57;;;;;;;;;;5052523;28;20045;-64
2023/10/13 17:17:47;;;;;;;19.27;8.52;;;;;;;;;;5052744;28;20045;-64
2023/10/13 17:20:13;;;;;;;18.75;7.90;;;;;;;;;;5052466;28;20052;-64
2023/10/13 17:22:42;;;;;;;16.70;7.43;;;;;;;;;;5052497;28;20056;-64
2023/10/13 17:25:12;;;;;;;20.70;6.70;;;;;;;;;;5052578;28;20041;-64
2023/10/13 17:27:39;;;;;;;19.10;6.53;;;;;;;;;;5052862;28;20051;-64
2023/10/13 17:30:05;;;;;;;13.93;6.65;;;;;;;;;;5052312;28;20550;-64
2023/10/13 17:32:32;;;;;;;14.32;6.60;;;;;;;;;;5052506;28;20567;-64
2023/10/13 17:35:00;;;;;;;19.83;6.82;;;;;;;;;;5052425;28;20052;-64
2023/10/13 17:37:29;;;;;;;17.85;7.53;;;;;;;;;;5052090;28;20057;-64
2023/10/13 17:39:55;;;;;;;21.35;7.82;;;;;;;;;;5052092;28;20049;-64
2023/10/13 17:42:21;;;;;;;16.63;6.57;;;;;;;;;;5052323;28;20045;-64
2023/10/13 17:44:47;;;;;;;20.70;7.22;;;;;;;;;;5051798;28;20045;-64
2023/10/13 17:47:14;;;;;;;14.93;6.82;;;;;;;;;;5034107;28;20041;-64
2023/10/13 17:49:40;;;;;;;19.98;7.35;;;;;;;;;;5052322;28;20099;-64
2023/10/13 17:52:07;;;;;;;23.45;8.57;;;;;;;;;;5051678;28;20478;-64
2023/10/13 17:54:34;;;;;;;21.90;7.93;;;;;;;;;;5051784;28;20056;-64
2023/10/13 17:57:00;;;;;;;19.58;7.35;;;;;;;;;;5051876;28;20583;-64
2023/10/13 17:59:26;;;;;;;22.00;7.47;;;;;;;;;;5051693;28;20090;-64
2023/10/13 18:01:53;;;;;;;20.77;7.90;;;;;;;;;;5051972;28;20040;-64
2023/10/13 18:04:20;;;;;;;18.92;7.65;;;;;;;;;;5051921;28;20437;-64
2023/10/13 18:06:46;;;;;;;16.17;7.70;;;;;;;;;;5050615;28;20426;-64
2023/10/13 18:09:13;;;;;;;22.00;8.18;;;;;;;;;;5051876;28;20056;-64
2023/10/13 18:11:42;;;;;;;22.02;8.18;;;;;;;;;;5051660;28;20076;-64
2023/10/13 18:14:09;;;;;;;16.38;7.47;;;;;;;;;;5051472;28;20049;-64
2023/10/13 18:16:35;;;;;;;18.58;8.55;;;;;;;;;;5051665;28;20037;-64
2023/10/13 18:19:07;;;;;;;19.77;8.18;;;;;;;;;;5051585;28;20124;-64
2023/10/13 18:21:34;;;;;;;18.17;7.25;;;;;;;;;;5033388;28;20499;-64
2023/10/13 18:24:00;;;;;;;19.23;8.02;;;;;;;;;;5051583;28;20506;-64
2023/10/13 18:26:27;;;;;;;21.55;8.68;;;;;;;;;;5051389;28;20043;-64
2023/10/13 18:28:58;;;;;;;25.17;9.27;;;;;;;;;;5051261;28;20041;-64